sensor_id;sensor_type;location;lat;lon;timestamp;pressure;altitude;pressure_sealevel;temperature;humidity
23589;BME280;11972;48.078;11.876;2023-04-30T00:03:41;95519.31;;;10.39;100.00
23589;BME280;11972;48.078;11.876;2023-04-30T00:07:41;95523.59;;;10.40;100.00
23589;BME280;11972;48.078;11.876;2023-04-30T00:11:42;95517.34;;;10.41;100.00
23589;BME280;11972;48.078;11.876;2023-04-30T00:15:42;95520.97;;;10.40;100.00
23589;BME280;11972;48.078;11.876;2023-04-30T00:19:42;95524.69;;;10.31;100.00
23589;BME280;11972;48.078;11.876;2023-04-30T00:23:43;95527.25;;;10.25;100.00
23589;BME280;11972;48.078;11.876;2023-04-30T00:27:43;95530.00;;;10.23;100.00
23589;BME280;11972;48.078;11.876;2023-04-30T00:31:44;95528.19;;;10.24;100.00
23589;BME280;11972;48.078;11.876;2023-04-30T00:35:44;95522.44;;;10.20;100.00
23589;BME280;11972;48.078;11.876;2023-04-30T00:39:45;95525.28;;;10.18;100.00
23589;BME280;11972;48.078;11.876;2023-04-30T00:43:45;95511.47;;;10.16;100.00
23589;BME280;11972;48.078;11.876;2023-04-30T00:47:46;95520.91;;;10.11;100.00
23589;BME280;11972;48.078;11.876;2023-04-30T00:51:47;95519.97;;;10.04;100.00
23589;BME280;11972;48.078;11.876;2023-04-30T00:55:48;95526.31;;;9.94;100.00
23589;BME280;11972;48.078;11.876;2023-04-30T00:59:49;95530.31;;;9.90;100.00
23589;BME280;11972;48.078;11.876;2023-04-30T01:03:50;95537.06;;;9.93;100.00
23589;BME280;11972;48.078;11.876;2023-04-30T01:07:51;95533.59;;;9.92;100.00
23589;BME280;11972;48.078;11.876;2023-04-30T01:16:19;95539.78;;;10.00;100.00
23589;BME280;11972;48.078;11.876;2023-04-30T01:20:23;95535.78;;;10.04;100.00
23589;BME280;11972;48.078;11.876;2023-04-30T01:24:42;95542.25;;;10.01;100.00
23589;BME280;11972;48.078;11.876;2023-04-30T01:28:49;95545.78;;;9.93;100.00
23589;BME280;11972;48.078;11.876;2023-04-30T01:32:50;95547.78;;;9.91;100.00
23589;BME280;11972;48.078;11.876;2023-04-30T01:41:33;95546.84;;;9.84;100.00
23589;BME280;11972;48.078;11.876;2023-04-30T01:50:02;95559.81;;;9.71;100.00
23589;BME280;11972;48.078;11.876;2023-04-30T01:54:28;95556.47;;;9.77;100.00
23589;BME280;11972;48.078;11.876;2023-04-30T01:58:30;95560.59;;;9.80;100.00
23589;BME280;11972;48.078;11.876;2023-04-30T02:02:31;95562.69;;;9.84;100.00
23589;BME280;11972;48.078;11.876;2023-04-30T02:06:31;95558.22;;;9.85;100.00
23589;BME280;11972;48.078;11.876;2023-04-30T02:10:32;95561.75;;;9.77;100.00
23589;BME280;11972;48.078;11.876;2023-04-30T02:14:32;95564.09;;;9.72;100.00
23589;BME280;11972;48.078;11.876;2023-04-30T02:18:33;95561.50;;;9.64;100.00
23589;BME280;11972;48.078;11.876;2023-04-30T02:22:34;95557.28;;;9.55;100.00
23589;BME280;11972;48.078;11.876;2023-04-30T02:26:34;95555.69;;;9.45;100.00
23589;BME280;11972;48.078;11.876;2023-04-30T02:30:35;95559.06;;;9.31;100.00
23589;BME280;11972;48.078;11.876;2023-04-30T02:34:35;95560.47;;;9.19;100.00
23589;BME280;11972;48.078;11.876;2023-04-30T02:38:35;95570.22;;;9.10;100.00
23589;BME280;11972;48.078;11.876;2023-04-30T02:42:35;95573.38;;;9.06;100.00
23589;BME280;11972;48.078;11.876;2023-04-30T02:46:36;95578.16;;;9.02;100.00
23589;BME280;11972;48.078;11.876;2023-04-30T02:50:36;95571.75;;;8.97;100.00
23589;BME280;11972;48.078;11.876;2023-04-30T02:54:37;95576.03;;;8.98;100.00
23589;BME280;11972;48.078;11.876;2023-04-30T02:58:37;95574.03;;;9.00;100.00
23589;BME280;11972;48.078;11.876;2023-04-30T03:02:37;95573.38;;;9.06;100.00
23589;BME280;11972;48.078;11.876;2023-04-30T03:06:38;95567.28;;;9.05;100.00
23589;BME280;11972;48.078;11.876;2023-04-30T03:10:38;95573.88;;;9.01;100.00
23589;BME280;11972;48.078;11.876;2023-04-30T03:14:38;95575.69;;;9.01;100.00
23589;BME280;11972;48.078;11.876;2023-04-30T03:18:38;95582.59;;;9.02;100.00
23589;BME280;11972;48.078;11.876;2023-04-30T03:22:39;95579.97;;;9.02;100.00
23589;BME280;11972;48.078;11.876;2023-04-30T03:26:39;95575.22;;;8.97;100.00
23589;BME280;11972;48.078;11.876;2023-04-30T03:30:40;95570.44;;;8.92;100.00
23589;BME280;11972;48.078;11.876;2023-04-30T03:34:41;95568.53;;;8.78;100.00
23589;BME280;11972;48.078;11.876;2023-04-30T03:38:41;95563.28;;;8.70;100.00
23589;BME280;11972;48.078;11.876;2023-04-30T03:42:42;95570.53;;;8.68;100.00
23589;BME280;11972;48.078;11.876;2023-04-30T03:46:42;95559.38;;;8.58;100.00
23589;BME280;11972;48.078;11.876;2023-04-30T03:50:42;95558.91;;;8.38;100.00
23589;BME280;11972;48.078;11.876;2023-04-30T03:54:43;95558.91;;;8.21;100.00
23589;BME280;11972;48.078;11.876;2023-04-30T03:58:43;95562.56;;;8.04;100.00
23589;BME280;11972;48.078;11.876;2023-04-30T04:02:44;95563.38;;;7.88;100.00
23589;BME280;11972;48.078;11.876;2023-04-30T04:06:44;95559.44;;;7.76;100.00
23589;BME280;11972;48.078;11.876;2023-04-30T04:10:44;95560.72;;;7.64;100.00
23589;BME280;11972;48.078;11.876;2023-04-30T04:14:45;95565.00;;;7.57;100.00
23589;BME280;11972;48.078;11.876;2023-04-30T04:18:45;95558.09;;;7.72;100.00
23589;BME280;11972;48.078;11.876;2023-04-30T04:22:45;95573.56;;;7.91;100.00
23589;BME280;11972;48.078;11.876;2023-04-30T04:26:46;95575.38;;;8.15;100.00
23589;BME280;11972;48.078;11.876;2023-04-30T04:30:46;95580.47;;;8.41;100.00
23589;BME280;11972;48.078;11.876;2023-04-30T04:34:47;95586.50;;;8.66;100.00
23589;BME280;11972;48.078;11.876;2023-04-30T04:38:49;95587.25;;;8.91;100.00
23589;BME280;11972;48.078;11.876;2023-04-30T04:42:49;95595.91;;;9.08;100.00
23589;BME280;11972;48.078;11.876;2023-04-30T04:46:53;95602.63;;;9.19;100.00
23589;BME280;11972;48.078;11.876;2023-04-30T04:50:55;95606.53;;;9.31;100.00
23589;BME280;11972;48.078;11.876;2023-04-30T04:54:56;95595.22;;;9.45;100.00
23589;BME280;11972;48.078;11.876;2023-04-30T04:58:57;95594.50;;;9.60;100.00
23589;BME280;11972;48.078;11.876;2023-04-30T05:02:57;95595.03;;;9.78;100.00
23589;BME280;11972;48.078;11.876;2023-04-30T05:06:58;95580.56;;;9.97;100.00
23589;BME280;11972;48.078;11.876;2023-04-30T05:10:58;95589.50;;;10.11;100.00
23589;BME280;11972;48.078;11.876;2023-04-30T05:14:58;95595.38;;;10.21;100.00
23589;BME280;11972;48.078;11.876;2023-04-30T05:18:59;95594.91;;;10.17;100.00
23589;BME280;11972;48.078;11.876;2023-04-30T05:22:59;95605.47;;;10.17;100.00
23589;BME280;11972;48.078;11.876;2023-04-30T05:26:59;95609.44;;;10.36;100.00
23589;BME280;11972;48.078;11.876;2023-04-30T05:31:01;95608.59;;;10.59;100.00
23589;BME280;11972;48.078;11.876;2023-04-30T05:35:02;95603.66;;;10.56;100.00
23589;BME280;11972;48.078;11.876;2023-04-30T05:39:03;95610.50;;;10.50;100.00
23589;BME280;11972;48.078;11.876;2023-04-30T05:43:03;95608.84;;;10.49;100.00
23589;BME280;11972;48.078;11.876;2023-04-30T05:47:04;95604.41;;;10.50;100.00
23589;BME280;11972;48.078;11.876;2023-04-30T05:51:04;95611.63;;;10.85;100.00
23589;BME280;11972;48.078;11.876;2023-04-30T05:55:06;95607.50;;;11.27;100.00
23589;BME280;11972;48.078;11.876;2023-04-30T05:59:06;95599.09;;;11.38;100.00
23589;BME280;11972;48.078;11.876;2023-04-30T06:03:07;95597.81;;;11.34;100.00
23589;BME280;11972;48.078;11.876;2023-04-30T06:07:07;95598.94;;;11.25;100.00
23589;BME280;11972;48.078;11.876;2023-04-30T06:11:07;95600.69;;;11.69;100.00
23589;BME280;11972;48.078;11.876;2023-04-30T06:15:08;95595.69;;;11.81;100.00
23589;BME280;11972;48.078;11.876;2023-04-30T06:19:08;95601.63;;;12.19;100.00
23589;BME280;11972;48.078;11.876;2023-04-30T06:23:08;95597.41;;;12.53;100.00
23589;BME280;11972;48.078;11.876;2023-04-30T06:27:09;95592.34;;;12.58;100.00
23589;BME280;11972;48.078;11.876;2023-04-30T06:31:09;95593.19;;;12.37;100.00
23589;BME280;11972;48.078;11.876;2023-04-30T06:35:10;95592.03;;;12.18;100.00
23589;BME280;11972;48.078;11.876;2023-04-30T06:39:14;95582.94;;;12.27;100.00
23589;BME280;11972;48.078;11.876;2023-04-30T06:43:16;95588.34;;;12.40;100.00
23589;BME280;11972;48.078;11.876;2023-04-30T06:47:16;95584.31;;;12.45;100.00
23589;BME280;11972;48.078;11.876;2023-04-30T06:51:16;95586.84;;;12.31;100.00
23589;BME280;11972;48.078;11.876;2023-04-30T06:55:17;95593.44;;;12.14;100.00
23589;BME280;11972;48.078;11.876;2023-04-30T06:59:17;95590.50;;;12.09;100.00
23589;BME280;11972;48.078;11.876;2023-04-30T07:03:17;95592.44;;;12.43;100.00
23589;BME280;11972;48.078;11.876;2023-04-30T07:07:18;95592.22;;;13.01;100.00
23589;BME280;11972;48.078;11.876;2023-04-30T07:11:18;95592.69;;;13.52;100.00
23589;BME280;11972;48.078;11.876;2023-04-30T07:15:18;95581.59;;;14.10;100.00
23589;BME280;11972;48.078;11.876;2023-04-30T07:19:19;95587.13;;;14.15;100.00
23589;BME280;11972;48.078;11.876;2023-04-30T07:23:19;95582.25;;;14.25;100.00
23589;BME280;11972;48.078;11.876;2023-04-30T07:27:20;95583.06;;;14.32;100.00
23589;BME280;11972;48.078;11.876;2023-04-30T07:31:20;95595.31;;;14.40;100.00
23589;BME280;11972;48.078;11.876;2023-04-30T07:35:20;95593.50;;;14.87;100.00
23589;BME280;11972;48.078;11.876;2023-04-30T07:39:21;95585.44;;;15.13;100.00
23589;BME280;11972;48.078;11.876;2023-04-30T07:43:21;95583.84;;;15.64;100.00
23589;BME280;11972;48.078;11.876;2023-04-30T07:47:21;95579.63;;;16.20;100.00
23589;BME280;11972;48.078;11.876;2023-04-30T07:51:22;95578.06;;;16.12;100.00
23589;BME280;11972;48.078;11.876;2023-04-30T07:55:22;95581.06;;;16.22;100.00
23589;BME280;11972;48.078;11.876;2023-04-30T07:59:23;95578.97;;;16.56;100.00
23589;BME280;11972;48.078;11.876;2023-04-30T08:03:23;95576.84;;;16.65;100.00
23589;BME280;11972;48.078;11.876;2023-04-30T08:07:23;95578.31;;;16.85;100.00
23589;BME280;11972;48.078;11.876;2023-04-30T08:11:25;95581.91;;;17.34;100.00
23589;BME280;11972;48.078;11.876;2023-04-30T08:15:25;95584.28;;;17.79;100.00
23589;BME280;11972;48.078;11.876;2023-04-30T08:19:26;95583.03;;;17.94;100.00
23589;BME280;11972;48.078;11.876;2023-04-30T08:23:26;95586.81;;;16.51;100.00
23589;BME280;11972;48.078;11.876;2023-04-30T08:27:27;95585.28;;;15.67;100.00
23589;BME280;11972;48.078;11.876;2023-04-30T08:31:27;95581.63;;;16.31;100.00
23589;BME280;11972;48.078;11.876;2023-04-30T08:35:27;95579.44;;;16.96;100.00
23589;BME280;11972;48.078;11.876;2023-04-30T08:39:28;95581.03;;;17.41;100.00
23589;BME280;11972;48.078;11.876;2023-04-30T08:43:29;95585.19;;;17.36;100.00
23589;BME280;11972;48.078;11.876;2023-04-30T08:47:30;95572.66;;;17.85;100.00
23589;BME280;11972;48.078;11.876;2023-04-30T08:51:31;95584.53;;;17.90;100.00
23589;BME280;11972;48.078;11.876;2023-04-30T08:55:33;95587.72;;;17.98;100.00
23589;BME280;11972;48.078;11.876;2023-04-30T08:59:33;95587.88;;;17.85;100.00
23589;BME280;11972;48.078;11.876;2023-04-30T09:03:33;95593.69;;;17.08;100.00
23589;BME280;11972;48.078;11.876;2023-04-30T09:07:34;95592.03;;;16.64;100.00
23589;BME280;11972;48.078;11.876;2023-04-30T09:11:36;95604.47;;;15.75;100.00
23589;BME280;11972;48.078;11.876;2023-04-30T09:15:38;95603.22;;;15.84;100.00
23589;BME280;11972;48.078;11.876;2023-04-30T09:19:40;95590.00;;;16.59;100.00
23589;BME280;11972;48.078;11.876;2023-04-30T09:23:55;95590.81;;;17.47;100.00
23589;BME280;11972;48.078;11.876;2023-04-30T09:28:12;95588.28;;;16.72;100.00
23589;BME280;11972;48.078;11.876;2023-04-30T09:32:12;95597.66;;;17.24;100.00
23589;BME280;11972;48.078;11.876;2023-04-30T09:36:13;95586.81;;;17.38;100.00
23589;BME280;11972;48.078;11.876;2023-04-30T09:40:13;95579.06;;;18.15;100.00
23589;BME280;11972;48.078;11.876;2023-04-30T09:44:30;95575.78;;;19.25;100.00
23589;BME280;11972;48.078;11.876;2023-04-30T09:48:31;95579.53;;;19.00;100.00
23589;BME280;11972;48.078;11.876;2023-04-30T09:52:31;95583.56;;;18.44;100.00
23589;BME280;11972;48.078;11.876;2023-04-30T09:56:34;95582.03;;;16.84;100.00
23589;BME280;11972;48.078;11.876;2023-04-30T10:00:37;95592.84;;;16.08;100.00
23589;BME280;11972;48.078;11.876;2023-04-30T10:04:41;95592.06;;;16.57;100.00
23589;BME280;11972;48.078;11.876;2023-04-30T10:08:46;95590.00;;;17.46;100.00
23589;BME280;11972;48.078;11.876;2023-04-30T10:12:53;95587.09;;;17.48;100.00
23589;BME280;11972;48.078;11.876;2023-04-30T10:17:12;95586.31;;;17.96;100.00
23589;BME280;11972;48.078;11.876;2023-04-30T10:21:15;95585.09;;;18.52;100.00
23589;BME280;11972;48.078;11.876;2023-04-30T10:25:17;95582.44;;;18.22;100.00
23589;BME280;11972;48.078;11.876;2023-04-30T10:29:18;95570.41;;;18.54;100.00
23589;BME280;11972;48.078;11.876;2023-04-30T10:33:41;95571.50;;;18.65;100.00
23589;BME280;11972;48.078;11.876;2023-04-30T10:37:50;95559.88;;;19.18;100.00
23589;BME280;11972;48.078;11.876;2023-04-30T10:42:00;95560.22;;;19.10;100.00
23589;BME280;11972;48.078;11.876;2023-04-30T10:46:01;95559.34;;;17.67;100.00
23589;BME280;11972;48.078;11.876;2023-04-30T10:50:03;95552.34;;;18.26;100.00
23589;BME280;11972;48.078;11.876;2023-04-30T10:54:03;95543.06;;;19.34;100.00
23589;BME280;11972;48.078;11.876;2023-04-30T10:58:22;95535.38;;;20.07;100.00
23589;BME280;11972;48.078;11.876;2023-04-30T11:02:22;95537.22;;;20.52;100.00
23589;BME280;11972;48.078;11.876;2023-04-30T11:06:23;95533.25;;;21.10;100.00
23589;BME280;11972;48.078;11.876;2023-04-30T11:10:31;95532.47;;;20.93;100.00
23589;BME280;11972;48.078;11.876;2023-04-30T11:14:42;95517.94;;;20.38;100.00
23589;BME280;11972;48.078;11.876;2023-04-30T11:18:44;95522.47;;;19.75;100.00
23589;BME280;11972;48.078;11.876;2023-04-30T11:22:45;95523.97;;;18.25;100.00
23589;BME280;11972;48.078;11.876;2023-04-30T11:27:21;95527.72;;;17.64;100.00
23589;BME280;11972;48.078;11.876;2023-04-30T11:31:32;95519.72;;;17.64;100.00
23589;BME280;11972;48.078;11.876;2023-04-30T11:35:32;95520.06;;;18.63;100.00
23589;BME280;11972;48.078;11.876;2023-04-30T11:39:34;95511.72;;;19.47;100.00
23589;BME280;11972;48.078;11.876;2023-04-30T11:43:35;95512.28;;;20.06;100.00
23589;BME280;11972;48.078;11.876;2023-04-30T11:47:48;95517.97;;;19.93;100.00
23589;BME280;11972;48.078;11.876;2023-04-30T11:51:49;95510.41;;;19.90;100.00
23589;BME280;11972;48.078;11.876;2023-04-30T11:55:50;95512.97;;;19.56;100.00
23589;BME280;11972;48.078;11.876;2023-04-30T11:59:51;95509.03;;;19.47;100.00
23589;BME280;11972;48.078;11.876;2023-04-30T12:03:54;95507.50;;;19.11;100.00
23589;BME280;11972;48.078;11.876;2023-04-30T12:11:56;95514.78;;;17.49;100.00
23589;BME280;11972;48.078;11.876;2023-04-30T12:15:58;95500.72;;;18.14;100.00
23589;BME280;11972;48.078;11.876;2023-04-30T12:19:59;95500.78;;;18.61;100.00
23589;BME280;11972;48.078;11.876;2023-04-30T12:23:59;95492.88;;;18.90;100.00
23589;BME280;11972;48.078;11.876;2023-04-30T12:28:00;95505.56;;;18.71;100.00
23589;BME280;11972;48.078;11.876;2023-04-30T12:32:00;95498.22;;;18.66;100.00
23589;BME280;11972;48.078;11.876;2023-04-30T12:36:00;95500.06;;;18.54;100.00
23589;BME280;11972;48.078;11.876;2023-04-30T12:40:01;95497.38;;;19.01;100.00
23589;BME280;11972;48.078;11.876;2023-04-30T12:44:21;95491.41;;;19.63;100.00
23589;BME280;11972;48.078;11.876;2023-04-30T12:48:23;95482.06;;;20.27;100.00
23589;BME280;11972;48.078;11.876;2023-04-30T12:52:25;95476.22;;;20.47;100.00
23589;BME280;11972;48.078;11.876;2023-04-30T12:56:26;95474.13;;;20.66;100.00
23589;BME280;11972;48.078;11.876;2023-04-30T13:00:26;95474.03;;;20.78;100.00
23589;BME280;11972;48.078;11.876;2023-04-30T13:04:26;95466.16;;;20.71;100.00
23589;BME280;11972;48.078;11.876;2023-04-30T13:08:28;95464.69;;;20.47;100.00
23589;BME280;11972;48.078;11.876;2023-04-30T13:12:29;95453.75;;;19.69;100.00
23589;BME280;11972;48.078;11.876;2023-04-30T13:16:29;95456.78;;;19.90;100.00
23589;BME280;11972;48.078;11.876;2023-04-30T13:20:30;95457.88;;;20.22;100.00
23589;BME280;11972;48.078;11.876;2023-04-30T13:24:31;95452.56;;;19.08;100.00
23589;BME280;11972;48.078;11.876;2023-04-30T13:28:31;95441.94;;;19.13;100.00
23589;BME280;11972;48.078;11.876;2023-04-30T13:32:31;95440.16;;;19.59;100.00
23589;BME280;11972;48.078;11.876;2023-04-30T13:36:32;95440.75;;;19.61;100.00
23589;BME280;11972;48.078;11.876;2023-04-30T13:40:32;95431.06;;;20.22;100.00
23589;BME280;11972;48.078;11.876;2023-04-30T13:44:33;95426.41;;;20.35;100.00
23589;BME280;11972;48.078;11.876;2023-04-30T13:48:35;95412.16;;;21.12;100.00
23589;BME280;11972;48.078;11.876;2023-04-30T13:52:35;95407.78;;;21.27;99.52
23589;BME280;11972;48.078;11.876;2023-04-30T13:56:36;95401.69;;;21.59;99.14
23589;BME280;11972;48.078;11.876;2023-04-30T14:00:37;95409.31;;;22.32;98.25
23589;BME280;11972;48.078;11.876;2023-04-30T14:04:37;95397.94;;;22.24;92.92
23589;BME280;11972;48.078;11.876;2023-04-30T14:08:38;95398.69;;;21.83;94.72
23589;BME280;11972;48.078;11.876;2023-04-30T14:12:38;95389.75;;;22.94;96.18
23589;BME280;11972;48.078;11.876;2023-04-30T14:16:38;95392.81;;;23.18;90.53
23589;BME280;11972;48.078;11.876;2023-04-30T14:20:39;95393.53;;;22.93;90.16
23589;BME280;11972;48.078;11.876;2023-04-30T14:24:39;95393.06;;;21.57;89.02
23589;BME280;11972;48.078;11.876;2023-04-30T14:28:40;95401.22;;;21.18;92.48
23589;BME280;11972;48.078;11.876;2023-04-30T14:32:40;95400.84;;;21.31;94.08
23589;BME280;11972;48.078;11.876;2023-04-30T14:36:40;95397.78;;;20.57;91.76
23589;BME280;11972;48.078;11.876;2023-04-30T14:40:42;95393.38;;;20.12;94.10
23589;BME280;11972;48.078;11.876;2023-04-30T14:44:43;95387.81;;;20.19;97.61
23589;BME280;11972;48.078;11.876;2023-04-30T14:48:43;95387.38;;;20.44;96.32
23589;BME280;11972;48.078;11.876;2023-04-30T14:52:44;95382.56;;;19.73;94.45
23589;BME280;11972;48.078;11.876;2023-04-30T14:56:46;95381.09;;;19.37;100.00
23589;BME280;11972;48.078;11.876;2023-04-30T15:00:47;95382.53;;;20.07;100.00
23589;BME280;11972;48.078;11.876;2023-04-30T15:04:50;95376.72;;;20.49;100.00
23589;BME280;11972;48.078;11.876;2023-04-30T15:08:50;95375.72;;;20.72;99.35
23589;BME280;11972;48.078;11.876;2023-04-30T15:12:51;95381.06;;;20.33;98.81
23589;BME280;11972;48.078;11.876;2023-04-30T15:16:51;95379.72;;;19.34;99.77
23589;BME280;11972;48.078;11.876;2023-04-30T15:20:52;95385.63;;;19.08;100.00
23589;BME280;11972;48.078;11.876;2023-04-30T15:24:52;95388.91;;;18.34;100.00
23589;BME280;11972;48.078;11.876;2023-04-30T15:28:54;95395.19;;;18.05;100.00
23589;BME280;11972;48.078;11.876;2023-04-30T15:32:55;95399.38;;;18.48;100.00
23589;BME280;11972;48.078;11.876;2023-04-30T15:36:56;95384.94;;;18.72;100.00
23589;BME280;11972;48.078;11.876;2023-04-30T15:40:58;95378.53;;;19.59;100.00
23589;BME280;11972;48.078;11.876;2023-04-30T15:44:58;95379.34;;;19.43;100.00
23589;BME280;11972;48.078;11.876;2023-04-30T15:48:58;95377.75;;;19.58;100.00
23589;BME280;11972;48.078;11.876;2023-04-30T15:52:58;95381.53;;;19.17;100.00
23589;BME280;11972;48.078;11.876;2023-04-30T15:56:59;95384.38;;;18.70;100.00
23589;BME280;11972;48.078;11.876;2023-04-30T16:00:59;95382.63;;;18.64;100.00
23589;BME280;11972;48.078;11.876;2023-04-30T16:05:01;95379.25;;;18.57;100.00
23589;BME280;11972;48.078;11.876;2023-04-30T16:09:01;95367.66;;;19.20;100.00
23589;BME280;11972;48.078;11.876;2023-04-30T16:13:06;95367.28;;;19.28;100.00
23589;BME280;11972;48.078;11.876;2023-04-30T16:17:07;95367.75;;;18.97;100.00
23589;BME280;11972;48.078;11.876;2023-04-30T16:21:08;95372.81;;;18.81;100.00
23589;BME280;11972;48.078;11.876;2023-04-30T16:25:09;95377.09;;;18.07;100.00
23589;BME280;11972;48.078;11.876;2023-04-30T16:29:09;95380.44;;;17.79;100.00
23589;BME280;11972;48.078;11.876;2023-04-30T16:33:10;95366.97;;;17.44;100.00
23589;BME280;11972;48.078;11.876;2023-04-30T16:37:10;95363.63;;;17.60;100.00
23589;BME280;11972;48.078;11.876;2023-04-30T16:41:13;95364.38;;;17.25;100.00
23589;BME280;11972;48.078;11.876;2023-04-30T16:45:13;95362.75;;;17.24;100.00
23589;BME280;11972;48.078;11.876;2023-04-30T16:49:14;95353.44;;;17.15;100.00
23589;BME280;11972;48.078;11.876;2023-04-30T16:53:14;95346.22;;;17.04;100.00
23589;BME280;11972;48.078;11.876;2023-04-30T16:57:14;95351.00;;;16.83;100.00
23589;BME280;11972;48.078;11.876;2023-04-30T17:01:15;95349.91;;;17.03;100.00
23589;BME280;11972;48.078;11.876;2023-04-30T17:05:15;95346.84;;;16.88;100.00
23589;BME280;11972;48.078;11.876;2023-04-30T17:09:15;95349.81;;;16.79;100.00
23589;BME280;11972;48.078;11.876;2023-04-30T17:13:16;95353.22;;;16.68;100.00
23589;BME280;11972;48.078;11.876;2023-04-30T17:17:17;95362.91;;;16.44;100.00
23589;BME280;11972;48.078;11.876;2023-04-30T17:21:17;95359.13;;;16.15;100.00
23589;BME280;11972;48.078;11.876;2023-04-30T17:25:18;95362.28;;;15.87;100.00
23589;BME280;11972;48.078;11.876;2023-04-30T17:29:18;95366.16;;;15.66;100.00
23589;BME280;11972;48.078;11.876;2023-04-30T17:33:20;95361.00;;;15.39;100.00
23589;BME280;11972;48.078;11.876;2023-04-30T17:37:20;95366.84;;;15.23;100.00
23589;BME280;11972;48.078;11.876;2023-04-30T17:41:20;95364.31;;;15.03;100.00
23589;BME280;11972;48.078;11.876;2023-04-30T17:45:21;95365.44;;;14.82;100.00
23589;BME280;11972;48.078;11.876;2023-04-30T17:49:21;95358.59;;;14.55;100.00
23589;BME280;11972;48.078;11.876;2023-04-30T17:53:22;95355.81;;;14.23;100.00
23589;BME280;11972;48.078;11.876;2023-04-30T17:57:22;95370.19;;;13.96;100.00
23589;BME280;11972;48.078;11.876;2023-04-30T18:01:22;95374.28;;;13.65;100.00
23589;BME280;11972;48.078;11.876;2023-04-30T18:05:24;95368.19;;;13.38;100.00
23589;BME280;11972;48.078;11.876;2023-04-30T18:09:25;95365.84;;;13.15;100.00
23589;BME280;11972;48.078;11.876;2023-04-30T18:13:26;95365.59;;;12.90;100.00
23589;BME280;11972;48.078;11.876;2023-04-30T18:17:26;95368.84;;;12.72;100.00
23589;BME280;11972;48.078;11.876;2023-04-30T18:21:26;95366.28;;;12.51;100.00
23589;BME280;11972;48.078;11.876;2023-04-30T18:25:27;95371.75;;;12.36;100.00
23589;BME280;11972;48.078;11.876;2023-04-30T18:29:27;95367.81;;;12.25;100.00
23589;BME280;11972;48.078;11.876;2023-04-30T18:33:27;95369.34;;;12.06;100.00
23589;BME280;11972;48.078;11.876;2023-04-30T18:37:28;95368.06;;;11.96;100.00
23589;BME280;11972;48.078;11.876;2023-04-30T18:41:29;95370.97;;;11.79;100.00
23589;BME280;11972;48.078;11.876;2023-04-30T18:45:29;95367.84;;;11.69;100.00
23589;BME280;11972;48.078;11.876;2023-04-30T18:49:29;95370.81;;;11.59;100.00
23589;BME280;11972;48.078;11.876;2023-04-30T18:53:30;95380.28;;;11.47;100.00
23589;BME280;11972;48.078;11.876;2023-04-30T18:57:31;95371.63;;;11.32;100.00
23589;BME280;11972;48.078;11.876;2023-04-30T19:01:31;95380.75;;;11.29;100.00
23589;BME280;11972;48.078;11.876;2023-04-30T19:05:33;95373.19;;;11.26;100.00
23589;BME280;11972;48.078;11.876;2023-04-30T19:09:34;95368.78;;;11.33;100.00
23589;BME280;11972;48.078;11.876;2023-04-30T19:13:35;95376.06;;;11.31;100.00
23589;BME280;11972;48.078;11.876;2023-04-30T19:17:36;95375.84;;;11.26;100.00
23589;BME280;11972;48.078;11.876;2023-04-30T19:21:36;95380.38;;;11.11;100.00
23589;BME280;11972;48.078;11.876;2023-04-30T19:25:36;95373.66;;;11.08;100.00
23589;BME280;11972;48.078;11.876;2023-04-30T19:29:38;95368.38;;;11.08;100.00
23589;BME280;11972;48.078;11.876;2023-04-30T19:33:38;95372.97;;;11.00;100.00
23589;BME280;11972;48.078;11.876;2023-04-30T19:37:40;95368.81;;;10.90;100.00
23589;BME280;11972;48.078;11.876;2023-04-30T19:41:40;95373.56;;;10.80;100.00
23589;BME280;11972;48.078;11.876;2023-04-30T19:45:52;95373.88;;;10.71;100.00
23589;BME280;11972;48.078;11.876;2023-04-30T19:49:53;95368.41;;;10.72;100.00
23589;BME280;11972;48.078;11.876;2023-04-30T19:53:53;95372.41;;;10.68;100.00
23589;BME280;11972;48.078;11.876;2023-04-30T19:57:54;95368.88;;;10.61;100.00
23589;BME280;11972;48.078;11.876;2023-04-30T20:01:54;95373.91;;;10.56;100.00
23589;BME280;11972;48.078;11.876;2023-04-30T20:05:54;95374.09;;;10.54;100.00
23589;BME280;11972;48.078;11.876;2023-04-30T20:09:55;95365.06;;;10.49;100.00
23589;BME280;11972;48.078;11.876;2023-04-30T20:13:55;95369.19;;;10.51;100.00
23589;BME280;11972;48.078;11.876;2023-04-30T20:17:56;95369.66;;;10.40;100.00
23589;BME280;11972;48.078;11.876;2023-04-30T20:21:57;95368.94;;;10.31;100.00
23589;BME280;11972;48.078;11.876;2023-04-30T20:25:57;95361.06;;;10.23;100.00
23589;BME280;11972;48.078;11.876;2023-04-30T20:29:58;95359.28;;;10.09;100.00
23589;BME280;11972;48.078;11.876;2023-04-30T20:33:59;95361.19;;;10.15;100.00
23589;BME280;11972;48.078;11.876;2023-04-30T20:38:00;95356.00;;;10.07;100.00
23589;BME280;11972;48.078;11.876;2023-04-30T20:42:00;95358.72;;;9.99;100.00
23589;BME280;11972;48.078;11.876;2023-04-30T20:46:00;95355.56;;;9.88;100.00
23589;BME280;11972;48.078;11.876;2023-04-30T20:50:01;95342.63;;;9.79;100.00
23589;BME280;11972;48.078;11.876;2023-04-30T20:54:01;95347.53;;;9.82;100.00
23589;BME280;11972;48.078;11.876;2023-04-30T20:58:02;95343.47;;;9.79;100.00
23589;BME280;11972;48.078;11.876;2023-04-30T21:02:02;95336.25;;;9.73;100.00
23589;BME280;11972;48.078;11.876;2023-04-30T21:06:04;95340.53;;;9.74;100.00
23589;BME280;11972;48.078;11.876;2023-04-30T21:10:05;95338.81;;;9.81;100.00